sensor_id;sensor_type;location;lat;lon;timestamp;P1;durP1;ratioP1;P2;durP2;ratioP2
13289;SDS011;6713;50.954;5.310;2023-11-19T00:01:31;8.20;;;3.83;;
13289;SDS011;6713;50.954;5.310;2023-11-19T00:03:57;8.13;;;3.77;;
13289;SDS011;6713;50.954;5.310;2023-11-19T00:06:23;8.40;;;4.57;;
13289;SDS011;6713;50.954;5.310;2023-11-19T00:08:52;9.00;;;3.97;;
13289;SDS011;6713;50.954;5.310;2023-11-19T00:11:17;6.87;;;3.27;;
13289;SDS011;6713;50.954;5.310;2023-11-19T00:13:43;7.57;;;3.70;;
13289;SDS011;6713;50.954;5.310;2023-11-19T00:16:10;8.13;;;4.03;;
13289;SDS011;6713;50.954;5.310;2023-11-19T00:18:37;6.83;;;3.93;;
13289;SDS011;6713;50.954;5.310;2023-11-19T00:21:03;6.13;;;3.80;;
13289;SDS011;6713;50.954;5.310;2023-11-19T00:23:30;8.77;;;4.23;;
13289;SDS011;6713;50.954;5.310;2023-11-19T00:25:57;6.67;;;4.17;;
13289;SDS011;6713;50.954;5.310;2023-11-19T00:28:24;10.67;;;4.40;;
13289;SDS011;6713;50.954;5.310;2023-11-19T00:30:50;8.33;;;4.23;;
13289;SDS011;6713;50.954;5.310;2023-11-19T00:33:17;8.17;;;4.17;;
13289;SDS011;6713;50.954;5.310;2023-11-19T00:35:43;9.27;;;5.00;;
13289;SDS011;6713;50.954;5.310;2023-11-19T00:38:09;9.20;;;5.20;;
13289;SDS011;6713;50.954;5.310;2023-11-19T00:40:36;9.30;;;5.33;;
13289;SDS011;6713;50.954;5.310;2023-11-19T00:43:03;12.77;;;6.50;;
13289;SDS011;6713;50.954;5.310;2023-11-19T00:45:30;12.03;;;6.07;;
13289;SDS011;6713;50.954;5.310;2023-11-19T00:47:57;13.03;;;6.60;;
13289;SDS011;6713;50.954;5.310;2023-11-19T00:50:24;16.73;;;6.40;;
13289;SDS011;6713;50.954;5.310;2023-11-19T00:52:50;10.93;;;6.13;;
13289;SDS011;6713;50.954;5.310;2023-11-19T00:55:17;16.30;;;6.23;;
13289;SDS011;6713;50.954;5.310;2023-11-19T00:57:43;11.67;;;6.13;;
13289;SDS011;6713;50.954;5.310;2023-11-19T01:00:11;12.23;;;6.23;;
13289;SDS011;6713;50.954;5.310;2023-11-19T01:02:43;13.33;;;5.97;;
13289;SDS011;6713;50.954;5.310;2023-11-19T01:05:09;12.67;;;7.03;;
13289;SDS011;6713;50.954;5.310;2023-11-19T01:07:39;14.23;;;5.50;;
13289;SDS011;6713;50.954;5.310;2023-11-19T01:10:05;13.93;;;6.43;;
13289;SDS011;6713;50.954;5.310;2023-11-19T01:12:32;17.33;;;6.83;;
13289;SDS011;6713;50.954;5.310;2023-11-19T01:14:58;10.07;;;6.07;;
13289;SDS011;6713;50.954;5.310;2023-11-19T01:17:27;14.53;;;7.13;;
13289;SDS011;6713;50.954;5.310;2023-11-19T01:19:54;15.30;;;6.70;;
13289;SDS011;6713;50.954;5.310;2023-11-19T01:22:20;16.47;;;6.40;;
13289;SDS011;6713;50.954;5.310;2023-11-19T01:24:46;13.40;;;5.70;;
13289;SDS011;6713;50.954;5.310;2023-11-19T01:27:13;17.97;;;6.47;;
13289;SDS011;6713;50.954;5.310;2023-11-19T01:29:39;18.83;;;6.40;;
13289;SDS011;6713;50.954;5.310;2023-11-19T01:32:07;12.17;;;5.50;;
13289;SDS011;6713;50.954;5.310;2023-11-19T01:34:35;12.97;;;5.40;;
13289;SDS011;6713;50.954;5.310;2023-11-19T01:37:02;12.03;;;4.30;;
13289;SDS011;6713;50.954;5.310;2023-11-19T01:39:28;18.67;;;5.37;;
13289;SDS011;6713;50.954;5.310;2023-11-19T01:41:54;12.83;;;5.20;;
13289;SDS011;6713;50.954;5.310;2023-11-19T01:44:21;13.37;;;4.97;;
13289;SDS011;6713;50.954;5.310;2023-11-19T01:46:47;16.20;;;5.57;;
13289;SDS011;6713;50.954;5.310;2023-11-19T01:49:14;13.50;;;4.60;;
13289;SDS011;6713;50.954;5.310;2023-11-19T01:51:42;15.00;;;5.10;;
13289;SDS011;6713;50.954;5.310;2023-11-19T01:54:08;12.50;;;4.57;;
13289;SDS011;6713;50.954;5.310;2023-11-19T01:56:35;11.87;;;5.47;;
13289;SDS011;6713;50.954;5.310;2023-11-19T01:59:03;9.03;;;4.10;;
13289;SDS011;6713;50.954;5.310;2023-11-19T02:01:30;12.63;;;4.50;;
13289;SDS011;6713;50.954;5.310;2023-11-19T02:03:57;12.63;;;4.87;;
13289;SDS011;6713;50.954;5.310;2023-11-19T02:06:24;11.60;;;4.63;;
13289;SDS011;6713;50.954;5.310;2023-11-19T02:08:53;19.83;;;4.77;;
13289;SDS011;6713;50.954;5.310;2023-11-19T02:11:19;19.07;;;5.37;;
13289;SDS011;6713;50.954;5.310;2023-11-19T02:13:45;11.70;;;2.87;;
13289;SDS011;6713;50.954;5.310;2023-11-19T02:16:12;12.43;;;2.50;;
13289;SDS011;6713;50.954;5.310;2023-11-19T02:18:39;13.27;;;2.93;;
13289;SDS011;6713;50.954;5.310;2023-11-19T02:21:05;14.57;;;2.90;;
13289;SDS011;6713;50.954;5.310;2023-11-19T02:23:32;13.83;;;2.70;;
13289;SDS011;6713;50.954;5.310;2023-11-19T02:26:02;14.33;;;2.27;;
13289;SDS011;6713;50.954;5.310;2023-11-19T02:28:31;7.43;;;2.70;;
13289;SDS011;6713;50.954;5.310;2023-11-19T02:30:58;18.10;;;3.77;;
13289;SDS011;6713;50.954;5.310;2023-11-19T02:33:25;12.37;;;3.13;;
13289;SDS011;6713;50.954;5.310;2023-11-19T02:35:51;16.17;;;3.47;;
13289;SDS011;6713;50.954;5.310;2023-11-19T02:38:18;19.17;;;3.70;;
13289;SDS011;6713;50.954;5.310;2023-11-19T02:40:45;21.27;;;4.20;;
13289;SDS011;6713;50.954;5.310;2023-11-19T02:43:11;10.37;;;3.40;;
13289;SDS011;6713;50.954;5.310;2023-11-19T02:45:39;13.77;;;4.10;;
13289;SDS011;6713;50.954;5.310;2023-11-19T02:48:07;18.23;;;5.60;;
13289;SDS011;6713;50.954;5.310;2023-11-19T02:50:33;16.20;;;3.87;;
13289;SDS011;6713;50.954;5.310;2023-11-19T02:53:00;12.63;;;3.77;;
13289;SDS011;6713;50.954;5.310;2023-11-19T02:55:27;15.03;;;3.33;;
13289;SDS011;6713;50.954;5.310;2023-11-19T02:57:56;15.63;;;3.53;;
13289;SDS011;6713;50.954;5.310;2023-11-19T03:00:24;12.83;;;3.63;;
13289;SDS011;6713;50.954;5.310;2023-11-19T03:02:58;17.40;;;4.03;;
13289;SDS011;6713;50.954;5.310;2023-11-19T03:05:30;18.47;;;3.83;;
13289;SDS011;6713;50.954;5.310;2023-11-19T03:07:57;8.40;;;3.10;;
13289;SDS011;6713;50.954;5.310;2023-11-19T03:10:23;17.10;;;4.30;;
13289;SDS011;6713;50.954;5.310;2023-11-19T03:12:49;10.13;;;3.57;;
13289;SDS011;6713;50.954;5.310;2023-11-19T03:15:16;21.50;;;3.97;;
13289;SDS011;6713;50.954;5.310;2023-11-19T03:17:42;17.87;;;3.80;;
13289;SDS011;6713;50.954;5.310;2023-11-19T03:20:10;14.10;;;3.13;;
13289;SDS011;6713;50.954;5.310;2023-11-19T03:22:40;19.33;;;4.17;;
13289;SDS011;6713;50.954;5.310;2023-11-19T03:25:06;16.73;;;4.53;;
13289;SDS011;6713;50.954;5.310;2023-11-19T03:27:34;18.53;;;4.10;;
13289;SDS011;6713;50.954;5.310;2023-11-19T03:30:00;17.73;;;3.90;;
13289;SDS011;6713;50.954;5.310;2023-11-19T03:32:27;16.20;;;3.33;;
13289;SDS011;6713;50.954;5.310;2023-11-19T03:34:53;15.93;;;3.60;;
13289;SDS011;6713;50.954;5.310;2023-11-19T03:37:21;16.07;;;4.47;;
13289;SDS011;6713;50.954;5.310;2023-11-19T03:39:49;15.07;;;3.43;;
13289;SDS011;6713;50.954;5.310;2023-11-19T03:42:15;22.07;;;3.77;;
13289;SDS011;6713;50.954;5.310;2023-11-19T03:44:41;25.33;;;4.87;;
13289;SDS011;6713;50.954;5.310;2023-11-19T03:47:07;16.60;;;3.20;;
13289;SDS011;6713;50.954;5.310;2023-11-19T03:49:34;20.80;;;4.17;;
13289;SDS011;6713;50.954;5.310;2023-11-19T03:52:00;18.43;;;4.53;;
13289;SDS011;6713;50.954;5.310;2023-11-19T03:54:28;14.43;;;3.23;;
13289;SDS011;6713;50.954;5.310;2023-11-19T03:56:54;14.07;;;3.33;;
13289;SDS011;6713;50.954;5.310;2023-11-19T03:59:21;15.17;;;4.50;;
13289;SDS011;6713;50.954;5.310;2023-11-19T04:01:47;13.83;;;3.33;;
13289;SDS011;6713;50.954;5.310;2023-11-19T04:04:14;16.33;;;3.70;;
13289;SDS011;6713;50.954;5.310;2023-11-19T04:06:41;22.93;;;3.70;;
13289;SDS011;6713;50.954;5.310;2023-11-19T04:09:07;16.77;;;3.23;;
13289;SDS011;6713;50.954;5.310;2023-11-19T04:11:35;10.90;;;3.20;;
13289;SDS011;6713;50.954;5.310;2023-11-19T04:14:01;11.00;;;2.97;;
13289;SDS011;6713;50.954;5.310;2023-11-19T04:16:28;15.93;;;3.10;;
13289;SDS011;6713;50.954;5.310;2023-11-19T04:18:55;12.73;;;3.27;;
13289;SDS011;6713;50.954;5.310;2023-11-19T04:21:21;14.93;;;3.83;;
13289;SDS011;6713;50.954;5.310;2023-11-19T04:23:48;18.10;;;3.43;;
13289;SDS011;6713;50.954;5.310;2023-11-19T04:26:14;12.87;;;3.10;;
13289;SDS011;6713;50.954;5.310;2023-11-19T04:28:43;14.87;;;2.97;;
13289;SDS011;6713;50.954;5.310;2023-11-19T04:31:09;19.13;;;3.33;;
13289;SDS011;6713;50.954;5.310;2023-11-19T04:33:35;13.30;;;3.17;;
13289;SDS011;6713;50.954;5.310;2023-11-19T04:36:02;14.17;;;2.93;;
13289;SDS011;6713;50.954;5.310;2023-11-19T04:38:28;12.33;;;3.37;;
13289;SDS011;6713;50.954;5.310;2023-11-19T04:40:55;12.93;;;3.93;;
13289;SDS011;6713;50.954;5.310;2023-11-19T04:43:22;11.20;;;3.00;;
13289;SDS011;6713;50.954;5.310;2023-11-19T04:45:50;14.90;;;3.20;;
13289;SDS011;6713;50.954;5.310;2023-11-19T04:48:16;16.93;;;3.50;;
13289;SDS011;6713;50.954;5.310;2023-11-19T04:50:42;12.87;;;2.47;;
13289;SDS011;6713;50.954;5.310;2023-11-19T04:53:09;14.90;;;3.70;;
13289;SDS011;6713;50.954;5.310;2023-11-19T04:55:35;17.30;;;3.07;;
13289;SDS011;6713;50.954;5.310;2023-11-19T04:58:01;14.10;;;3.20;;
13289;SDS011;6713;50.954;5.310;2023-11-19T05:00:28;16.43;;;3.57;;
13289;SDS011;6713;50.954;5.310;2023-11-19T05:02:56;20.90;;;3.50;;
13289;SDS011;6713;50.954;5.310;2023-11-19T05:05:22;23.77;;;3.67;;
13289;SDS011;6713;50.954;5.310;2023-11-19T05:07:49;18.77;;;4.30;;
13289;SDS011;6713;50.954;5.310;2023-11-19T05:10:15;20.63;;;3.37;;
13289;SDS011;6713;50.954;5.310;2023-11-19T05:12:41;19.70;;;4.07;;
13289;SDS011;6713;50.954;5.310;2023-11-19T05:15:08;17.80;;;3.17;;
13289;SDS011;6713;50.954;5.310;2023-11-19T05:17:36;19.00;;;3.57;;
13289;SDS011;6713;50.954;5.310;2023-11-19T05:20:06;20.60;;;3.57;;
13289;SDS011;6713;50.954;5.310;2023-11-19T05:22:38;17.17;;;3.40;;
13289;SDS011;6713;50.954;5.310;2023-11-19T05:25:04;21.23;;;3.80;;
13289;SDS011;6713;50.954;5.310;2023-11-19T05:27:31;18.07;;;5.50;;
13289;SDS011;6713;50.954;5.310;2023-11-19T05:29:57;18.10;;;2.77;;
13289;SDS011;6713;50.954;5.310;2023-11-19T05:32:24;13.60;;;4.77;;
13289;SDS011;6713;50.954;5.310;2023-11-19T05:34:50;12.63;;;3.50;;
13289;SDS011;6713;50.954;5.310;2023-11-19T05:37:18;16.80;;;3.37;;
13289;SDS011;6713;50.954;5.310;2023-11-19T05:39:44;24.70;;;3.70;;
13289;SDS011;6713;50.954;5.310;2023-11-19T05:42:11;16.60;;;3.53;;
13289;SDS011;6713;50.954;5.310;2023-11-19T05:44:37;14.23;;;3.03;;
13289;SDS011;6713;50.954;5.310;2023-11-19T05:47:04;14.20;;;3.20;;
13289;SDS011;6713;50.954;5.310;2023-11-19T05:49:30;17.10;;;2.87;;
13289;SDS011;6713;50.954;5.310;2023-11-19T05:51:57;12.57;;;3.30;;
13289;SDS011;6713;50.954;5.310;2023-11-19T05:54:24;26.03;;;4.83;;
13289;SDS011;6713;50.954;5.310;2023-11-19T05:56:51;27.40;;;5.97;;
13289;SDS011;6713;50.954;5.310;2023-11-19T05:59:19;19.00;;;5.20;;
13289;SDS011;6713;50.954;5.310;2023-11-19T06:01:45;17.63;;;4.63;;
13289;SDS011;6713;50.954;5.310;2023-11-19T06:04:11;17.13;;;4.30;;
13289;SDS011;6713;50.954;5.310;2023-11-19T06:06:38;25.00;;;5.43;;
13289;SDS011;6713;50.954;5.310;2023-11-19T06:09:05;8.70;;;3.27;;
13289;SDS011;6713;50.954;5.310;2023-11-19T06:11:33;12.13;;;3.17;;
13289;SDS011;6713;50.954;5.310;2023-11-19T06:14:01;22.73;;;4.23;;
13289;SDS011;6713;50.954;5.310;2023-11-19T06:16:27;15.37;;;3.70;;
13289;SDS011;6713;50.954;5.310;2023-11-19T06:18:53;11.93;;;3.30;;
13289;SDS011;6713;50.954;5.310;2023-11-19T06:21:20;17.63;;;3.43;;
13289;SDS011;6713;50.954;5.310;2023-11-19T06:23:46;27.00;;;3.67;;
13289;SDS011;6713;50.954;5.310;2023-11-19T06:26:14;15.17;;;3.37;;
13289;SDS011;6713;50.954;5.310;2023-11-19T06:28:41;18.77;;;7.17;;
13289;SDS011;6713;50.954;5.310;2023-11-19T06:31:08;14.47;;;2.70;;
13289;SDS011;6713;50.954;5.310;2023-11-19T06:33:34;16.83;;;3.17;;
13289;SDS011;6713;50.954;5.310;2023-11-19T06:36:00;14.10;;;3.23;;
13289;SDS011;6713;50.954;5.310;2023-11-19T06:38:27;17.20;;;3.73;;
13289;SDS011;6713;50.954;5.310;2023-11-19T06:40:53;16.63;;;4.03;;
13289;SDS011;6713;50.954;5.310;2023-11-19T06:43:19;13.57;;;2.73;;
13289;SDS011;6713;50.954;5.310;2023-11-19T06:45:48;16.60;;;3.30;;
13289;SDS011;6713;50.954;5.310;2023-11-19T06:48:14;17.67;;;3.57;;
13289;SDS011;6713;50.954;5.310;2023-11-19T06:50:40;17.30;;;3.40;;
13289;SDS011;6713;50.954;5.310;2023-11-19T06:53:07;14.83;;;3.00;;
13289;SDS011;6713;50.954;5.310;2023-11-19T06:55:35;18.43;;;3.60;;
13289;SDS011;6713;50.954;5.310;2023-11-19T06:58:01;13.63;;;3.13;;
13289;SDS011;6713;50.954;5.310;2023-11-19T07:00:28;17.50;;;5.50;;
13289;SDS011;6713;50.954;5.310;2023-11-19T07:02:58;17.97;;;4.40;;
13289;SDS011;6713;50.954;5.310;2023-11-19T07:05:25;16.13;;;2.50;;
13289;SDS011;6713;50.954;5.310;2023-11-19T07:07:51;16.80;;;3.30;;
13289;SDS011;6713;50.954;5.310;2023-11-19T07:10:19;15.83;;;3.67;;
13289;SDS011;6713;50.954;5.310;2023-11-19T07:12:45;17.67;;;5.07;;
13289;SDS011;6713;50.954;5.310;2023-11-19T07:15:12;19.97;;;4.00;;
13289;SDS011;6713;50.954;5.310;2023-11-19T07:17:38;14.87;;;3.33;;
13289;SDS011;6713;50.954;5.310;2023-11-19T07:20:08;13.17;;;3.60;;
13289;SDS011;6713;50.954;5.310;2023-11-19T07:22:34;23.63;;;4.17;;
13289;SDS011;6713;50.954;5.310;2023-11-19T07:25:00;15.73;;;3.53;;
13289;SDS011;6713;50.954;5.310;2023-11-19T07:27:27;22.33;;;4.27;;
13289;SDS011;6713;50.954;5.310;2023-11-19T07:29:53;13.17;;;3.40;;
13289;SDS011;6713;50.954;5.310;2023-11-19T07:32:20;13.20;;;3.17;;
13289;SDS011;6713;50.954;5.310;2023-11-19T07:34:46;21.43;;;4.03;;
13289;SDS011;6713;50.954;5.310;2023-11-19T07:37:14;13.83;;;4.33;;
13289;SDS011;6713;50.954;5.310;2023-11-19T07:39:42;18.93;;;3.90;;
13289;SDS011;6713;50.954;5.310;2023-11-19T07:42:09;22.57;;;4.80;;
13289;SDS011;6713;50.954;5.310;2023-11-19T07:44:35;16.93;;;3.53;;
13289;SDS011;6713;50.954;5.310;2023-11-19T07:47:01;23.50;;;4.67;;
13289;SDS011;6713;50.954;5.310;2023-11-19T07:49:28;21.77;;;4.33;;
13289;SDS011;6713;50.954;5.310;2023-11-19T07:51:55;16.57;;;4.17;;
13289;SDS011;6713;50.954;5.310;2023-11-19T07:54:23;25.90;;;3.93;;
13289;SDS011;6713;50.954;5.310;2023-11-19T07:56:49;19.20;;;4.13;;
13289;SDS011;6713;50.954;5.310;2023-11-19T07:59:16;18.17;;;5.30;;
13289;SDS011;6713;50.954;5.310;2023-11-19T08:01:42;16.33;;;3.57;;
13289;SDS011;6713;50.954;5.310;2023-11-19T08:04:08;29.37;;;5.17;;
13289;SDS011;6713;50.954;5.310;2023-11-19T08:06:35;22.20;;;6.47;;
13289;SDS011;6713;50.954;5.310;2023-11-19T08:09:01;20.53;;;3.93;;
13289;SDS011;6713;50.954;5.310;2023-11-19T08:11:29;22.20;;;4.83;;
13289;SDS011;6713;50.954;5.310;2023-11-19T08:13:55;23.87;;;5.30;;
13289;SDS011;6713;50.954;5.310;2023-11-19T08:16:22;17.47;;;4.03;;
13289;SDS011;6713;50.954;5.310;2023-11-19T08:18:48;22.33;;;4.73;;
13289;SDS011;6713;50.954;5.310;2023-11-19T08:21:14;14.17;;;3.43;;
13289;SDS011;6713;50.954;5.310;2023-11-19T08:23:41;20.43;;;4.13;;
13289;SDS011;6713;50.954;5.310;2023-11-19T08:26:07;21.33;;;4.43;;
13289;SDS011;6713;50.954;5.310;2023-11-19T08:28:35;27.33;;;4.77;;
13289;SDS011;6713;50.954;5.310;2023-11-19T08:31:01;22.20;;;4.43;;
13289;SDS011;6713;50.954;5.310;2023-11-19T08:33:29;16.17;;;4.07;;
13289;SDS011;6713;50.954;5.310;2023-11-19T08:35:55;16.50;;;4.00;;
13289;SDS011;6713;50.954;5.310;2023-11-19T08:38:22;20.50;;;5.67;;
13289;SDS011;6713;50.954;5.310;2023-11-19T08:40:48;18.63;;;5.83;;
13289;SDS011;6713;50.954;5.310;2023-11-19T08:43:15;15.67;;;3.60;;
13289;SDS011;6713;50.954;5.310;2023-11-19T08:45:43;23.37;;;6.90;;
13289;SDS011;6713;50.954;5.310;2023-11-19T08:48:09;18.83;;;4.90;;
13289;SDS011;6713;50.954;5.310;2023-11-19T08:50:36;21.67;;;4.10;;
13289;SDS011;6713;50.954;5.310;2023-11-19T08:53:02;19.07;;;4.67;;
13289;SDS011;6713;50.954;5.310;2023-11-19T08:55:31;18.13;;;3.47;;
13289;SDS011;6713;50.954;5.310;2023-11-19T08:57:58;17.90;;;3.97;;
13289;SDS011;6713;50.954;5.310;2023-11-19T09:00:24;16.90;;;5.87;;
13289;SDS011;6713;50.954;5.310;2023-11-19T09:02:52;11.87;;;3.20;;
13289;SDS011;6713;50.954;5.310;2023-11-19T09:05:18;19.97;;;3.00;;
13289;SDS011;6713;50.954;5.310;2023-11-19T09:07:44;15.43;;;4.23;;
13289;SDS011;6713;50.954;5.310;2023-11-19T09:10:11;12.87;;;3.73;;
13289;SDS011;6713;50.954;5.310;2023-11-19T09:12:37;10.40;;;3.13;;
13289;SDS011;6713;50.954;5.310;2023-11-19T09:15:04;17.47;;;3.33;;
13289;SDS011;6713;50.954;5.310;2023-11-19T09:17:31;15.93;;;3.27;;
13289;SDS011;6713;50.954;5.310;2023-11-19T09:19:59;17.83;;;3.57;;
13289;SDS011;6713;50.954;5.310;2023-11-19T09:22:25;12.67;;;3.63;;
13289;SDS011;6713;50.954;5.310;2023-11-19T09:24:51;19.17;;;3.90;;
13289;SDS011;6713;50.954;5.310;2023-11-19T09:27:18;17.63;;;3.37;;
13289;SDS011;6713;50.954;5.310;2023-11-19T09:29:45;11.53;;;2.40;;
13289;SDS011;6713;50.954;5.310;2023-11-19T09:32:14;17.43;;;3.30;;
13289;SDS011;6713;50.954;5.310;2023-11-19T09:34:40;15.60;;;3.07;;
13289;SDS011;6713;50.954;5.310;2023-11-19T09:37:07;20.47;;;3.63;;
13289;SDS011;6713;50.954;5.310;2023-11-19T09:39:33;12.00;;;3.50;;
13289;SDS011;6713;50.954;5.310;2023-11-19T09:42:00;10.47;;;2.77;;
13289;SDS011;6713;50.954;5.310;2023-11-19T09:44:26;14.93;;;2.83;;
13289;SDS011;6713;50.954;5.310;2023-11-19T09:46:53;15.03;;;3.17;;
13289;SDS011;6713;50.954;5.310;2023-11-19T09:49:20;9.97;;;3.10;;
13289;SDS011;6713;50.954;5.310;2023-11-19T09:51:47;14.30;;;2.73;;
13289;SDS011;6713;50.954;5.310;2023-11-19T09:54:15;13.50;;;3.77;;
13289;SDS011;6713;50.954;5.310;2023-11-19T09:56:41;11.80;;;2.50;;
13289;SDS011;6713;50.954;5.310;2023-11-19T09:59:08;19.93;;;2.90;;
13289;SDS011;6713;50.954;5.310;2023-11-19T10:01:35;19.03;;;3.70;;
13289;SDS011;6713;50.954;5.310;2023-11-19T10:04:01;14.47;;;3.07;;
13289;SDS011;6713;50.954;5.310;2023-11-19T10:06:28;15.70;;;5.33;;
13289;SDS011;6713;50.954;5.310;2023-11-19T10:08:54;19.00;;;5.27;;
13289;SDS011;6713;50.954;5.310;2023-11-19T10:11:22;11.33;;;3.47;;
13289;SDS011;6713;50.954;5.310;2023-11-19T10:13:49;15.63;;;3.63;;
13289;SDS011;6713;50.954;5.310;2023-11-19T10:16:17;14.60;;;3.03;;
13289;SDS011;6713;50.954;5.310;2023-11-19T10:18:45;13.53;;;2.97;;
13289;SDS011;6713;50.954;5.310;2023-11-19T10:21:11;11.37;;;3.20;;
13289;SDS011;6713;50.954;5.310;2023-11-19T10:23:51;11.00;;;2.27;;
13289;SDS011;6713;50.954;5.310;2023-11-19T10:26:17;11.13;;;2.80;;
13289;SDS011;6713;50.954;5.310;2023-11-19T10:28:45;16.07;;;2.70;;
13289;SDS011;6713;50.954;5.310;2023-11-19T10:31:12;14.63;;;3.00;;
13289;SDS011;6713;50.954;5.310;2023-11-19T10:33:39;11.73;;;2.97;;
13289;SDS011;6713;50.954;5.310;2023-11-19T10:36:05;9.77;;;2.40;;
13289;SDS011;6713;50.954;5.310;2023-11-19T10:38:32;14.60;;;3.23;;
13289;SDS011;6713;50.954;5.310;2023-11-19T10:40:59;13.93;;;4.33;;
13289;SDS011;6713;50.954;5.310;2023-11-19T10:43:25;10.60;;;2.87;;
13289;SDS011;6713;50.954;5.310;2023-11-19T10:45:54;9.70;;;2.43;;
13289;SDS011;6713;50.954;5.310;2023-11-19T10:48:34;13.20;;;3.33;;
13289;SDS011;6713;50.954;5.310;2023-11-19T10:51:00;9.70;;;2.50;;
13289;SDS011;6713;50.954;5.310;2023-11-19T10:53:29;7.80;;;2.13;;
13289;SDS011;6713;50.954;5.310;2023-11-19T10:55:55;14.80;;;4.57;;
13289;SDS011;6713;50.954;5.310;2023-11-19T10:58:24;10.83;;;3.10;;
13289;SDS011;6713;50.954;5.310;2023-11-19T11:00:51;11.50;;;4.30;;
13289;SDS011;6713;50.954;5.310;2023-11-19T11:03:20;10.27;;;3.47;;
13289;SDS011;6713;50.954;5.310;2023-11-19T11:05:47;11.10;;;3.70;;
13289;SDS011;6713;50.954;5.310;2023-11-19T11:08:14;13.97;;;5.37;;
13289;SDS011;6713;50.954;5.310;2023-11-19T11:10:42;15.77;;;2.97;;
13289;SDS011;6713;50.954;5.310;2023-11-19T11:13:09;10.83;;;3.33;;
13289;SDS011;6713;50.954;5.310;2023-11-19T11:15:37;13.90;;;2.97;;
13289;SDS011;6713;50.954;5.310;2023-11-19T11:18:03;11.27;;;2.60;;
13289;SDS011;6713;50.954;5.310;2023-11-19T11:20:33;8.40;;;3.10;;
13289;SDS011;6713;50.954;5.310;2023-11-19T11:23:06;12.80;;;2.30;;
13289;SDS011;6713;50.954;5.310;2023-11-19T11:25:38;14.37;;;3.40;;
13289;SDS011;6713;50.954;5.310;2023-11-19T11:28:10;13.00;;;2.93;;
13289;SDS011;6713;50.954;5.310;2023-11-19T11:30:43;14.07;;;3.10;;
13289;SDS011;6713;50.954;5.310;2023-11-19T11:33:17;12.33;;;2.40;;
13289;SDS011;6713;50.954;5.310;2023-11-19T11:35:49;14.03;;;2.43;;
13289;SDS011;6713;50.954;5.310;2023-11-19T11:38:21;11.40;;;3.17;;
13289;SDS011;6713;50.954;5.310;2023-11-19T11:43:44;11.73;;;2.60;;
13289;SDS011;6713;50.954;5.310;2023-11-19T11:48:52;8.13;;;2.87;;
13289;SDS011;6713;50.954;5.310;2023-11-19T11:51:20;10.93;;;2.30;;
13289;SDS011;6713;50.954;5.310;2023-11-19T11:54:07;13.47;;;2.70;;
13289;SDS011;6713;50.954;5.310;2023-11-19T11:56:36;15.13;;;5.33;;
13289;SDS011;6713;50.954;5.310;2023-11-19T11:59:03;7.07;;;2.10;;
13289;SDS011;6713;50.954;5.310;2023-11-19T12:01:29;9.70;;;2.67;;
13289;SDS011;6713;50.954;5.310;2023-11-19T12:03:56;13.77;;;2.77;;
13289;SDS011;6713;50.954;5.310;2023-11-19T12:06:24;11.13;;;3.47;;
13289;SDS011;6713;50.954;5.310;2023-11-19T12:08:52;16.83;;;4.00;;
13289;SDS011;6713;50.954;5.310;2023-11-19T12:11:25;12.17;;;3.10;;
13289;SDS011;6713;50.954;5.310;2023-11-19T12:13:55;11.27;;;2.97;;
13289;SDS011;6713;50.954;5.310;2023-11-19T12:16:23;10.10;;;2.60;;
13289;SDS011;6713;50.954;5.310;2023-11-19T12:18:49;11.13;;;2.80;;
13289;SDS011;6713;50.954;5.310;2023-11-19T12:21:30;12.10;;;2.93;;
13289;SDS011;6713;50.954;5.310;2023-11-19T12:23:57;13.43;;;3.97;;
13289;SDS011;6713;50.954;5.310;2023-11-19T12:26:33;11.60;;;2.73;;
13289;SDS011;6713;50.954;5.310;2023-11-19T12:28:59;17.40;;;3.80;;
13289;SDS011;6713;50.954;5.310;2023-11-19T12:31:28;12.17;;;3.43;;
13289;SDS011;6713;50.954;5.310;2023-11-19T12:33:55;12.17;;;2.60;;
13289;SDS011;6713;50.954;5.310;2023-11-19T12:36:21;11.47;;;2.80;;
13289;SDS011;6713;50.954;5.310;2023-11-19T12:41:52;12.47;;;2.30;;
13289;SDS011;6713;50.954;5.310;2023-11-19T12:44:19;17.03;;;3.63;;
13289;SDS011;6713;50.954;5.310;2023-11-19T12:46:45;14.93;;;3.03;;
13289;SDS011;6713;50.954;5.310;2023-11-19T12:49:11;10.73;;;2.73;;
13289;SDS011;6713;50.954;5.310;2023-11-19T12:51:38;13.37;;;3.77;;
13289;SDS011;6713;50.954;5.310;2023-11-19T12:54:05;9.77;;;2.40;;
13289;SDS011;6713;50.954;5.310;2023-11-19T12:56:31;10.10;;;2.37;;
13289;SDS011;6713;50.954;5.310;2023-11-19T12:59:01;11.90;;;3.07;;
13289;SDS011;6713;50.954;5.310;2023-11-19T13:01:36;11.90;;;3.73;;
13289;SDS011;6713;50.954;5.310;2023-11-19T13:04:15;11.77;;;2.23;;
13289;SDS011;6713;50.954;5.310;2023-11-19T13:06:44;10.80;;;2.33;;
13289;SDS011;6713;50.954;5.310;2023-11-19T13:09:12;9.33;;;2.43;;
13289;SDS011;6713;50.954;5.310;2023-11-19T13:11:47;9.40;;;2.23;;
13289;SDS011;6713;50.954;5.310;2023-11-19T13:14:14;12.70;;;3.47;;
13289;SDS011;6713;50.954;5.310;2023-11-19T13:16:41;12.67;;;3.00;;
13289;SDS011;6713;50.954;5.310;2023-11-19T13:19:07;6.60;;;3.40;;
13289;SDS011;6713;50.954;5.310;2023-11-19T13:21:34;13.83;;;2.30;;
13289;SDS011;6713;50.954;5.310;2023-11-19T13:24:02;9.80;;;2.30;;
13289;SDS011;6713;50.954;5.310;2023-11-19T13:26:28;9.73;;;2.03;;
13289;SDS011;6713;50.954;5.310;2023-11-19T13:28:54;12.67;;;3.57;;
13289;SDS011;6713;50.954;5.310;2023-11-19T13:31:22;12.13;;;2.30;;
13289;SDS011;6713;50.954;5.310;2023-11-19T13:33:48;10.50;;;2.37;;
13289;SDS011;6713;50.954;5.310;2023-11-19T13:36:15;15.00;;;3.20;;
13289;SDS011;6713;50.954;5.310;2023-11-19T13:38:41;13.43;;;4.63;;
13289;SDS011;6713;50.954;5.310;2023-11-19T13:41:09;11.40;;;2.50;;
13289;SDS011;6713;50.954;5.310;2023-11-19T13:43:36;9.33;;;2.37;;
13289;SDS011;6713;50.954;5.310;2023-11-19T13:46:03;13.43;;;3.60;;
13289;SDS011;6713;50.954;5.310;2023-11-19T13:48:30;12.17;;;3.03;;
13289;SDS011;6713;50.954;5.310;2023-11-19T13:50:57;12.00;;;2.73;;
13289;SDS011;6713;50.954;5.310;2023-11-19T13:53:23;13.83;;;3.60;;
13289;SDS011;6713;50.954;5.310;2023-11-19T13:55:50;13.37;;;2.53;;
13289;SDS011;6713;50.954;5.310;2023-11-19T13:58:16;13.83;;;3.13;;
13289;SDS011;6713;50.954;5.310;2023-11-19T14:00:42;10.30;;;2.50;;
13289;SDS011;6713;50.954;5.310;2023-11-19T14:03:08;11.20;;;2.93;;
13289;SDS011;6713;50.954;5.310;2023-11-19T14:05:36;13.50;;;3.27;;
13289;SDS011;6713;50.954;5.310;2023-11-19T14:08:03;12.53;;;2.33;;
13289;SDS011;6713;50.954;5.310;2023-11-19T14:10:36;16.40;;;2.43;;
13289;SDS011;6713;50.954;5.310;2023-11-19T14:13:04;11.47;;;2.83;;
13289;SDS011;6713;50.954;5.310;2023-11-19T14:15:30;10.43;;;2.50;;
13289;SDS011;6713;50.954;5.310;2023-11-19T14:17:56;9.67;;;2.10;;
13289;SDS011;6713;50.954;5.310;2023-11-19T14:20:22;10.13;;;2.50;;
13289;SDS011;6713;50.954;5.310;2023-11-19T14:22:50;10.93;;;2.60;;
13289;SDS011;6713;50.954;5.310;2023-11-19T14:25:17;12.67;;;2.43;;
13289;SDS011;6713;50.954;5.310;2023-11-19T14:27:44;13.63;;;2.57;;
13289;SDS011;6713;50.954;5.310;2023-11-19T14:30:12;10.57;;;4.00;;
13289;SDS011;6713;50.954;5.310;2023-11-19T14:32:39;11.93;;;3.30;;
13289;SDS011;6713;50.954;5.310;2023-11-19T14:35:07;13.77;;;2.73;;
13289;SDS011;6713;50.954;5.310;2023-11-19T14:37:34;13.00;;;3.93;;
13289;SDS011;6713;50.954;5.310;2023-11-19T14:40:02;10.53;;;2.50;;
13289;SDS011;6713;50.954;5.310;2023-11-19T14:42:29;14.60;;;2.73;;
13289;SDS011;6713;50.954;5.310;2023-11-19T14:44:55;8.90;;;2.50;;
13289;SDS011;6713;50.954;5.310;2023-11-19T14:47:22;11.80;;;2.93;;
13289;SDS011;6713;50.954;5.310;2023-11-19T14:49:48;12.33;;;2.63;;
13289;SDS011;6713;50.954;5.310;2023-11-19T14:52:15;13.07;;;2.90;;
13289;SDS011;6713;50.954;5.310;2023-11-19T14:54:41;11.03;;;3.33;;
13289;SDS011;6713;50.954;5.310;2023-11-19T14:57:09;13.73;;;2.93;;